Time;durP1;ratioP1;P1;durP2;ratioP2;P2;SDS_P1;SDS_P2;PMS_P1;PMS_P2;Temp;Humidity;BMP_temperature;BMP_pressure;BME280_temperature;BME280_humidity;BME280_pressure;Samples;Min_cycle;Max_cycle;Signal;HPM_P1;HPM_P2
2022/11/05 00:11:17;;;;;;;13.50;12.00;;;;;;;4.55;100.00;95847.31;5015886;28;20555;-79
2022/11/05 00:16:44;;;;;;;12.30;11.13;;;;;;;4.53;100.00;95828.50;5061825;28;20433;-79
2022/11/05 00:19:12;;;;;;;13.70;12.10;;;;;;;4.36;100.00;95800.41;5071801;28;20495;-79
2022/11/05 00:27:09;;;;;;;16.90;11.70;;;;;;;4.48;100.00;95866.06;5041625;28;20418;-78
2022/11/05 00:29:36;;;;;;;12.57;10.73;;;;;;;4.23;100.00;95822.16;5053163;28;20474;-79
2022/11/05 00:32:03;;;;;;;12.07;10.87;;;;;;;4.54;100.00;95866.69;5040302;28;20446;-79
2022/11/05 00:34:30;;;;;;;15.90;11.53;;;;;;;4.04;100.00;95804.03;5030547;28;20445;-79
2022/11/05 00:36:56;;;;;;;13.00;10.90;;;;;;;4.32;100.00;95847.31;5046002;28;20524;-79
2022/11/05 00:39:23;;;;;;;11.53;10.33;;;;;;;4.31;100.00;95855.47;5045176;28;20462;-79
2022/11/05 00:44:59;;;;;;;10.53;8.30;;;;;;;4.35;100.00;95836.25;5032387;28;21077;-79
2022/11/05 00:50:09;;;;;;;12.00;7.00;;;;;;;4.05;100.00;95847.44;5028264;28;20481;-80
2022/11/05 00:52:55;;;;;;;10.63;6.63;;;;;;;4.32;100.00;95877.97;5026848;28;20545;-80
2022/11/05 00:55:27;;;;;;;11.63;6.17;;;;;;;4.34;100.00;95879.19;5037010;28;20672;-79
2022/11/05 00:57:55;;;;;;;7.40;6.70;;;;;;;4.51;100.00;95885.63;5023572;28;20479;-79
2022/11/05 01:00:24;;;;;;;7.27;5.73;;;;;;;4.11;100.00;95857.47;5043712;28;21061;-80
2022/11/05 01:02:51;;;;;;;5.60;5.20;;;;;;;3.80;100.00;95786.78;5030962;28;20565;-80
2022/11/05 01:05:18;;;;;;;8.90;5.40;;;;;;;4.20;100.00;95868.00;5046045;28;20427;-80
2022/11/05 01:07:44;;;;;;;6.33;5.73;;;;;;;3.91;100.00;95860.56;5042249;28;20421;-80
2022/11/05 01:10:11;;;;;;;7.33;5.67;;;;;;;3.77;100.00;95847.50;5045989;28;20954;-80
2022/11/05 01:12:38;;;;;;;6.90;5.60;;;;;;;3.74;100.00;95870.81;5026359;28;21020;-79
2022/11/05 01:15:05;;;;;;;7.97;6.13;;;;;;;3.94;100.00;95903.63;5044346;28;20461;-79
2022/11/05 01:17:32;;;;;;;6.20;5.60;;;;;;;3.60;100.00;95849.94;5056192;28;20468;-79
2022/11/05 01:19:59;;;;;;;5.90;5.30;;;;;;;3.81;100.00;95892.13;5056705;28;20503;-78
2022/11/05 01:22:25;;;;;;;8.43;5.20;;;;;;;3.78;100.00;95883.03;5043558;28;20453;-79
2022/11/05 01:24:52;;;;;;;8.30;6.77;;;;;;;3.41;100.00;95838.84;5027855;28;20442;-79
2022/11/05 01:27:19;;;;;;;11.53;5.60;;;;;;;3.94;100.00;95914.09;5043744;28;20991;-81
2022/11/05 01:29:46;;;;;;;7.93;5.63;;;;;;;3.66;100.00;95882.75;5028496;28;20961;-81
2022/11/05 01:32:12;;;;;;;11.23;5.63;;;;;;;2.33;100.00;95693.16;5052871;28;20457;-81
2022/11/05 01:34:39;;;;;;;6.30;5.70;;;;;;;3.67;100.00;95889.53;5034132;28;20466;-81
2022/11/05 01:37:06;;;;;;;5.60;5.10;;;;;;;3.69;100.00;95903.09;5028118;28;20433;-81
2022/11/05 01:39:33;;;;;;;5.47;4.97;;;;;;;3.76;100.00;95921.78;5027985;28;21120;-80
2022/11/05 01:41:59;;;;;;;6.80;5.43;;;;;;;3.84;100.00;95922.91;5050874;28;20474;-81
2022/11/05 01:44:52;;;;;;;5.70;5.20;;;;;;;3.98;100.00;95944.59;5035303;28;20468;-81
2022/11/05 01:47:21;;;;;;;8.80;6.17;;;;;;;4.04;100.00;95950.50;5020644;28;20944;-78
2022/11/05 01:49:48;;;;;;;6.70;4.97;;;;;;;4.03;100.00;95948.97;5043190;28;20433;-79
2022/11/05 01:52:15;;;;;;;7.10;4.13;;;;;;;3.43;100.00;95884.50;5046337;28;20552;-79
2022/11/05 01:54:42;;;;;;;5.80;4.40;;;;;;;3.66;100.00;95913.34;5034389;28;20970;-79
2022/11/05 01:57:10;;;;;;;5.57;4.63;;;;;;;4.20;100.00;95961.41;5049231;28;20449;-78
2022/11/05 01:59:42;;;;;;;7.13;4.47;;;;;;;4.03;100.00;95960.19;5039039;28;20552;-79
2022/11/05 02:02:09;;;;;;;4.70;3.93;;;;;;;4.13;100.00;95933.03;5048888;28;20803;-79
2022/11/05 02:04:58;;;;;;;4.30;3.90;;;;;;;4.30;100.00;95964.59;5026679;28;20429;-79
2022/11/05 02:07:27;;;;;;;4.97;4.50;;;;;;;2.58;100.00;95724.00;5039047;28;20534;-79
2022/11/05 02:10:05;;;;;;;5.93;4.27;;;;;;;4.15;100.00;95959.69;5017970;28;20459;-79
2022/11/05 02:12:33;;;;;;;4.80;4.40;;;;;;;4.00;100.00;95950.31;5038896;28;20491;-79
2022/11/05 02:14:59;;;;;;;4.47;4.07;;;;;;;4.16;100.00;95969.09;5047276;28;20457;-79
2022/11/05 02:17:39;;;;;;;5.27;4.73;;;;;;;4.26;100.00;95968.84;5052374;28;20427;-79
2022/11/05 02:20:32;;;;;;;4.80;4.40;;;;;;;4.26;100.00;95968.84;5051977;28;20464;-80
2022/11/05 02:23:31;;;;;;;7.80;4.90;;;;;;;4.17;100.00;95975.88;5040657;28;20449;-80
2022/11/05 02:26:08;;;;;;;10.80;4.67;;;;;;;3.70;100.00;95924.78;5019072;28;20433;-80
2022/11/05 02:29:07;;;;;;;5.07;4.43;;;;;;;3.70;100.00;95922.94;5045387;28;20828;-80
2022/11/05 02:32:12;;;;;;;4.83;3.70;;;;;;;3.83;100.00;95935.22;5031960;28;20499;-80
2022/11/05 02:35:02;;;;;;;8.93;4.37;;;;;;;4.10;100.00;95957.94;5044918;28;20433;-80
2022/11/05 02:37:39;;;;;;;7.37;3.77;;;;;;;3.99;100.00;95953.97;5043479;28;20888;-79
2022/11/05 02:40:17;;;;;;;6.20;3.67;;;;;;;4.22;100.00;95980.22;5043675;28;20449;-79
2022/11/05 02:42:43;;;;;;;4.60;3.73;;;;;;;4.26;100.00;95979.31;5063987;28;20457;-80
2022/11/05 02:45:13;;;;;;;4.30;3.93;;;;;;;4.45;100.00;95973.97;5042213;28;20418;-79
2022/11/05 02:48:19;;;;;;;5.07;4.60;;;;;;;4.19;100.00;95950.19;5064321;28;20429;-79
2022/11/05 02:51:04;;;;;;;4.07;3.70;;;;;;;4.31;100.00;95978.47;5046640;28;20521;-80
2022/11/05 02:53:50;;;;;;;8.67;4.27;;;;;;;4.17;100.00;95959.41;5017308;28;20529;-79
2022/11/05 02:56:22;;;;;;;4.33;3.93;;;;;;;4.26;100.00;95974.09;5047084;28;20433;-79
2022/11/05 02:58:49;;;;;;;5.73;4.80;;;;;;;4.05;100.00;95950.22;5027118;28;20439;-79
2022/11/05 03:01:16;;;;;;;4.97;4.40;;;;;;;4.06;100.00;95953.59;5051208;28;21028;-80
2022/11/05 03:03:48;;;;;;;6.53;4.20;;;;;;;4.10;100.00;95978.88;5049339;28;20434;-79
2022/11/05 03:06:49;;;;;;;10.53;5.00;;;;;;;4.03;100.00;95973.28;5043924;28;20421;-80
2022/11/05 03:09:18;;;;;;;4.60;4.20;;;;;;;3.90;100.00;95974.06;5031493;28;20445;-79
2022/11/05 03:12:13;;;;;;;6.20;4.70;;;;;;;3.89;100.00;95977.75;5033806;28;20454;-79
2022/11/05 03:14:52;;;;;;;4.93;4.00;;;;;;;3.93;100.00;95976.09;5034833;28;20987;-79
2022/11/05 03:17:44;;;;;;;4.53;4.13;;;;;;;3.95;100.00;95981.78;5054019;28;20520;-80
2022/11/05 03:20:19;;;;;;;7.20;4.40;;;;;;;3.89;100.00;95979.59;5045134;28;20537;-80
2022/11/05 03:23:05;;;;;;;7.40;4.20;;;;;;;3.45;100.00;95949.53;5034125;28;20467;-80
2022/11/05 03:25:38;;;;;;;5.00;4.33;;;;;;;3.23;100.00;95900.59;5046842;28;20443;-80
2022/11/05 03:28:07;;;;;;;8.33;4.00;;;;;;;3.45;100.00;95947.72;5046107;28;20482;-80
2022/11/05 03:30:38;;;;;;;5.30;3.80;;;;;;;3.39;100.00;95950.72;5050627;28;20819;-79
2022/11/05 03:33:10;;;;;;;3.80;3.50;;;;;;;3.60;100.00;95983.25;5049918;28;20477;-80
2022/11/05 03:35:43;;;;;;;6.07;4.13;;;;;;;3.21;100.00;95908.72;5031309;28;20421;-79
2022/11/05 03:38:16;;;;;;;5.70;4.77;;;;;;;3.37;100.00;95927.50;5012778;28;20469;-79
2022/11/05 03:40:44;;;;;;;4.77;4.20;;;;;;;3.47;100.00;95940.38;5038806;28;20446;-79
2022/11/05 03:43:13;;;;;;;5.57;4.17;;;;;;;3.49;100.00;95930.41;5050634;28;20461;-80
2022/11/05 03:45:46;;;;;;;5.13;4.63;;;;;;;3.55;100.00;95934.47;5047342;28;20564;-79
2022/11/05 03:48:17;;;;;;;6.77;4.47;;;;;;;3.30;100.00;95911.41;5044404;28;20445;-79
2022/11/05 03:50:52;;;;;;;5.53;4.57;;;;;;;3.29;100.00;95922.94;5046080;28;20418;-81
2022/11/05 03:53:27;;;;;;;4.53;3.97;;;;;;;3.50;100.00;95958.09;5044808;28;20929;-81
2022/11/05 03:56:01;;;;;;;6.80;4.90;;;;;;;3.59;100.00;95949.56;5001696;28;20446;-80
2022/11/05 03:58:29;;;;;;;4.50;4.10;;;;;;;3.81;100.00;95981.03;5044934;28;20418;-80
2022/11/05 04:01:00;;;;;;;4.67;4.17;;;;;;;3.85;100.00;95977.53;5024297;28;20467;-80
2022/11/05 04:03:27;;;;;;;5.50;4.60;;;;;;;3.73;100.00;95966.78;5030500;28;20476;-81
2022/11/05 04:14:11;;;;;;;4.10;3.70;;;;;;;3.91;100.00;96006.22;5051749;28;20457;-81
2022/11/05 04:24:53;;;;;;;6.70;6.10;;;;;;;3.92;100.00;96005.16;5041066;28;20437;-81
2022/11/05 04:27:20;;;;;;;10.63;6.80;;;;;;;3.99;100.00;96018.59;5027343;28;20520;-80
2022/11/05 04:32:32;;;;;;;6.80;5.70;;;;;;;3.90;100.00;96017.75;5035784;28;20472;-81
2022/11/05 04:34:58;;;;;;;14.03;6.77;;;;;;;3.93;100.00;96025.78;5043989;28;20481;-81
2022/11/05 04:37:25;;;;;;;8.10;7.30;;;;;;;3.84;100.00;96024.88;5048652;28;20434;-80
2022/11/05 04:39:52;;;;;;;8.70;7.90;;;;;;;3.56;100.00;95980.44;5048349;28;20520;-80
2022/11/05 04:42:18;;;;;;;10.63;8.33;;;;;;;3.75;100.00;95990.81;5025640;28;20453;-81
2022/11/05 04:44:45;;;;;;;10.93;8.40;;;;;;;3.94;100.00;96023.94;5052170;28;20429;-80
2022/11/05 04:47:11;;;;;;;12.23;7.63;;;;;;;4.14;100.00;96053.09;5050279;28;20519;-81
2022/11/05 04:49:38;;;;;;;10.10;6.97;;;;;;;4.02;100.00;96050.19;5035149;28;20449;-80
2022/11/05 04:52:05;;;;;;;7.80;6.80;;;;;;;3.40;100.00;95989.63;5048344;28;20484;-80
2022/11/05 04:54:31;;;;;;;8.40;6.23;;;;;;;3.74;100.00;96062.47;5045538;28;20477;-80
2022/11/05 04:56:58;;;;;;;7.90;6.67;;;;;;;3.70;100.00;96053.63;5049222;28;20434;-80
2022/11/05 04:59:25;;;;;;;9.70;6.30;;;;;;;3.56;100.00;96024.09;5068261;28;20505;-80
2022/11/05 05:01:52;;;;;;;9.73;7.20;;;;;;;3.56;100.00;96018.88;5056610;28;20473;-80
2022/11/05 05:04:19;;;;;;;7.37;6.47;;;;;;;3.50;100.00;96018.19;5034108;28;20440;-80
2022/11/05 05:06:46;;;;;;;7.50;6.00;;;;;;;3.71;100.00;96025.66;5053296;28;20435;-80
2022/11/05 05:09:12;;;;;;;7.70;5.30;;;;;;;3.66;100.00;95992.56;5066283;28;20450;-80
2022/11/05 05:11:39;;;;;;;8.87;5.63;;;;;;;4.06;100.00;96039.91;5055194;28;20509;-80
2022/11/05 05:14:07;;;;;;;5.50;4.87;;;;;;;3.72;100.00;96014.13;5052812;28;20502;-80
2022/11/05 05:16:34;;;;;;;9.00;5.20;;;;;;;3.56;100.00;95998.72;5065448;28;20421;-80
2022/11/05 05:19:00;;;;;;;6.50;4.53;;;;;;;4.06;100.00;96085.16;5054983;28;20470;-80
2022/11/05 05:21:39;;;;;;;9.57;5.60;;;;;;;3.75;100.00;96061.41;5049417;28;20825;-80
2022/11/05 05:24:12;;;;;;;5.50;4.90;;;;;;;3.64;100.00;96035.72;5041119;28;20453;-80
2022/11/05 05:26:44;;;;;;;7.67;5.30;;;;;;;4.03;100.00;96087.59;5052512;28;20890;-80
2022/11/05 05:29:11;;;;;;;5.33;4.83;;;;;;;3.95;100.00;96075.16;5034476;28;20452;-80
2022/11/05 05:31:39;;;;;;;8.07;7.27;;;;;;;3.75;100.00;96052.78;5046246;28;20504;-80
2022/11/05 05:34:06;;;;;;;7.37;5.30;;;;;;;4.10;100.00;96095.81;5051214;28;20517;-80
2022/11/05 05:36:33;;;;;;;5.80;5.10;;;;;;;2.84;100.00;95895.78;5039572;28;20492;-80
2022/11/05 05:39:00;;;;;;;4.93;4.53;;;;;;;4.14;100.00;96100.19;5049529;28;20438;-80
2022/11/05 05:41:26;;;;;;;6.07;5.37;;;;;;;4.18;100.00;96103.00;5052550;28;20473;-80
2022/11/05 05:43:53;;;;;;;5.80;5.33;;;;;;;4.34;100.00;96112.09;5029862;28;20945;-80
2022/11/05 05:46:19;;;;;;;5.23;4.70;;;;;;;4.12;100.00;96083.97;5044352;28;20513;-80
2022/11/05 05:48:51;;;;;;;11.27;9.30;;;;;;;4.08;100.00;96063.94;5048667;28;20422;-80
2022/11/05 05:51:18;;;;;;;12.57;9.83;;;;;;;4.41;100.00;96122.97;5050895;28;20520;-80
2022/11/05 05:53:45;;;;;;;9.93;7.23;;;;;;;4.30;100.00;96099.91;5048541;28;20422;-80
2022/11/05 05:56:13;;;;;;;33.50;19.80;;;;;;;4.18;100.00;96097.00;5043850;28;20794;-80
2022/11/05 05:58:40;;;;;;;43.37;25.03;;;;;;;4.11;100.00;96087.66;5027653;28;20471;-80
2022/11/05 06:01:10;;;;;;;33.23;19.70;;;;;;;4.23;100.00;96094.25;5047827;28;20498;-80
2022/11/05 06:03:44;;;;;;;35.27;20.87;;;;;;;3.76;100.00;96000.22;5038036;28;20961;-80
2022/11/05 06:06:12;;;;;;;33.87;18.60;;;;;;;4.56;100.00;96126.34;5031056;28;21012;-80
2022/11/05 06:08:38;;;;;;;26.57;14.57;;;;;;;4.76;100.00;96152.13;5042240;28;20421;-80
2022/11/05 06:11:06;;;;;;;23.87;13.53;;;;;;;4.63;100.00;96153.69;5004394;28;20514;-80
2022/11/05 06:13:33;;;;;;;15.77;9.90;;;;;;;4.37;100.00;96129.84;5042192;28;20429;-80
2022/11/05 06:16:01;;;;;;;24.30;19.37;;;;;;;4.49;100.00;96158.16;5043345;28;20453;-80
2022/11/05 06:18:29;;;;;;;21.80;17.40;;;;;;;4.50;100.00;96159.69;5040577;28;20445;-80
2022/11/05 06:21:04;;;;;;;12.10;8.03;;;;;;;4.41;100.00;96162.22;5026639;28;20916;-80
2022/11/05 06:23:34;;;;;;;8.47;7.50;;;;;;;4.26;100.00;96135.53;5043153;28;20483;-80
2022/11/05 06:26:03;;;;;;;8.60;7.70;;;;;;;4.35;100.00;96134.59;5023528;28;20534;-80
2022/11/05 06:28:30;;;;;;;8.13;6.83;;;;;;;4.07;100.00;96088.53;5048230;28;20421;-80
2022/11/05 06:30:56;;;;;;;10.37;9.27;;;;;;;4.35;100.00;96113.66;5036776;28;20438;-81
2022/11/05 06:33:23;;;;;;;10.83;8.43;;;;;;;4.53;100.00;96121.69;5050557;28;20544;-80
2022/11/05 06:35:51;;;;;;;8.43;7.53;;;;;;;4.68;100.00;96169.31;5046001;28;20441;-80
2022/11/05 06:38:18;;;;;;;9.93;8.10;;;;;;;4.42;100.00;96135.00;5044819;28;20443;-80
2022/11/05 06:40:45;;;;;;;9.07;7.80;;;;;;;4.19;100.00;96119.47;5046941;28;20465;-80
2022/11/05 06:43:11;;;;;;;8.03;6.63;;;;;;;4.53;100.00;96155.72;5033525;28;20458;-80
2022/11/05 06:45:39;;;;;;;10.90;9.80;;;;;;;4.85;100.00;96178.41;5046405;28;20418;-80
2022/11/05 06:48:05;;;;;;;12.60;11.10;;;;;;;4.71;100.00;96152.22;5042851;28;20505;-80
2022/11/05 06:50:32;;;;;;;13.97;10.57;;;;;;;4.44;100.00;96119.00;5053340;28;20442;-80
2022/11/05 06:53:00;;;;;;;11.63;9.53;;;;;;;5.04;100.00;96200.00;5065378;28;20426;-80
2022/11/05 06:55:28;;;;;;;9.20;7.73;;;;;;;4.25;100.00;96076.44;5046350;28;20903;-80
2022/11/05 06:57:56;;;;;;;10.70;9.27;;;;;;;4.93;100.00;96196.03;5055853;28;20446;-80
2022/11/05 07:00:23;;;;;;;11.53;10.30;;;;;;;4.68;100.00;96164.06;5049824;28;20523;-80
2022/11/05 07:02:50;;;;;;;12.30;10.97;;;;;;;4.49;100.00;96120.72;5042755;28;20464;-80
2022/11/05 07:05:17;;;;;;;10.43;9.33;;;;;;;4.81;100.00;96177.41;5036998;28;20445;-80
2022/11/05 07:07:44;;;;;;;10.93;9.83;;;;;;;4.97;100.00;96217.97;5027146;28;20433;-80
2022/11/05 07:10:14;;;;;;;13.80;10.30;;;;;;;4.90;100.00;96223.59;5029281;28;20442;-80
2022/11/05 07:12:41;;;;;;;13.63;10.73;;;;;;;4.74;100.00;96196.16;5042223;28;20515;-80
2022/11/05 07:15:10;;;;;;;12.33;10.97;;;;;;;5.11;100.00;96228.44;5032391;28;20462;-81
2022/11/05 07:17:37;;;;;;;13.43;9.03;;;;;;;5.19;100.00;96230.38;5026056;28;20867;-80
2022/11/05 07:20:05;;;;;;;9.83;8.90;;;;;;;5.12;100.00;96214.28;5043813;28;20476;-80
2022/11/05 07:22:33;;;;;;;11.73;9.87;;;;;;;4.84;100.00;96192.56;5048303;28;20843;-78
2022/11/05 07:25:00;;;;;;;12.10;8.73;;;;;;;5.18;100.00;96228.81;5045916;28;20945;-79
2022/11/05 07:27:26;;;;;;;14.03;8.67;;;;;;;5.27;100.00;96248.03;5039504;28;20421;-78
2022/11/05 07:29:53;;;;;;;12.47;10.17;;;;;;;5.35;100.00;96242.09;5038429;28;20460;-79
2022/11/05 07:32:20;;;;;;;13.93;10.30;;;;;;;4.99;100.00;96193.03;5022903;28;20453;-79
2022/11/05 07:34:46;;;;;;;21.30;11.37;;;;;;;5.15;100.00;96201.34;5038914;28;20899;-79
2022/11/05 07:37:15;;;;;;;16.17;10.33;;;;;;;5.49;100.00;96265.69;5038150;28;20438;-78
2022/11/05 07:39:42;;;;;;;11.77;10.50;;;;;;;5.24;100.00;96238.91;5039486;28;20440;-79
2022/11/05 07:42:12;;;;;;;12.30;10.33;;;;;;;5.50;100.00;96282.97;5039165;28;20992;-78
2022/11/05 07:44:39;;;;;;;14.07;10.33;;;;;;;5.27;100.00;96259.28;5040238;28;20426;-79
2022/11/05 07:47:06;;;;;;;10.50;9.40;;;;;;;5.41;100.00;96261.88;5026961;28;20442;-79
2022/11/05 07:49:33;;;;;;;12.37;9.77;;;;;;;5.59;100.00;96297.69;5028760;28;20438;-79
2022/11/05 07:51:59;;;;;;;11.50;10.30;;;;;;;5.71;100.00;96304.28;5041670;28;20870;-79
2022/11/05 07:54:26;;;;;;;14.17;11.90;;;;;;;5.71;100.00;96286.69;5023138;28;20450;-79
2022/11/05 07:56:53;;;;;;;12.97;10.13;;;;;;;5.81;100.00;96283.84;5028377;28;20439;-79
2022/11/05 07:59:19;;;;;;;14.30;11.90;;;;;;;5.85;100.00;96282.16;5043748;28;20481;-79
2022/11/05 08:01:46;;;;;;;12.40;9.80;;;;;;;5.81;100.00;96268.09;5023033;28;20556;-79
2022/11/05 08:04:13;;;;;;;34.13;24.87;;;;;;;5.86;100.00;96286.34;5034938;28;20437;-79
2022/11/05 08:06:40;;;;;;;50.53;33.10;;;;;;;5.88;100.00;96281.59;5025814;28;20884;-79
2022/11/05 08:09:06;;;;;;;23.20;16.27;;;;;;;5.58;100.00;96250.78;5032985;28;20438;-79
2022/11/05 08:11:34;;;;;;;21.30;17.30;;;;;;;6.00;100.00;96296.06;5015428;28;20993;-79
2022/11/05 08:14:01;;;;;;;23.63;18.40;;;;;;;5.98;100.00;96279.84;5034977;28;20434;-79
2022/11/05 08:16:27;;;;;;;18.93;13.50;;;;;;;6.06;100.00;96252.88;5042421;28;20476;-79
2022/11/05 08:18:54;;;;;;;12.73;11.37;;;;;;;6.16;100.00;96265.78;5036328;28;20469;-79
2022/11/05 08:21:21;;;;;;;15.27;10.73;;;;;;;5.99;100.00;96242.03;5031710;28;20460;-79
2022/11/05 08:23:47;;;;;;;11.60;10.40;;;;;;;6.47;100.00;96276.31;5032394;28;20430;-79
2022/11/05 08:26:18;;;;;;;13.77;11.00;;;;;;;6.36;100.00;96265.28;5041670;28;20446;-79
2022/11/05 08:28:44;;;;;;;12.30;9.70;;;;;;;6.72;100.00;96303.78;5046566;28;20504;-79
2022/11/05 08:31:13;;;;;;;10.27;8.60;;;;;;;6.98;100.00;96307.31;5042446;28;20426;-79
2022/11/05 08:33:39;;;;;;;12.07;10.67;;;;;;;6.76;100.00;96294.22;5038504;28;21007;-79
2022/11/05 08:36:06;;;;;;;16.10;11.20;;;;;;;6.89;100.00;96301.25;5042513;28;20791;-79
2022/11/05 08:38:33;;;;;;;12.70;11.40;;;;;;;6.66;100.00;96252.44;5046527;28;20426;-79
2022/11/05 08:41:00;;;;;;;15.87;10.83;;;;;;;6.89;100.00;96292.59;5043841;28;20456;-79
2022/11/05 08:43:26;;;;;;;10.77;9.53;;;;;;;7.13;100.00;96314.03;5040144;28;20467;-79
2022/11/05 08:45:53;;;;;;;12.60;9.50;;;;;;;7.10;100.00;96294.38;5029753;28;20974;-79
2022/11/05 08:48:20;;;;;;;15.00;9.20;;;;;;;7.20;100.00;96318.84;5033527;28;20442;-77
2022/11/05 08:50:47;;;;;;;14.47;9.63;;;;;;;6.72;100.00;96286.19;5022557;28;20438;-78
2022/11/05 08:53:15;;;;;;;14.83;12.00;;;;;;;6.49;100.00;96264.41;5044905;28;20511;-78
2022/11/05 08:55:43;;;;;;;12.47;10.03;;;;;;;6.59;100.00;96262.63;5042308;28;20439;-78
2022/11/05 08:58:13;;;;;;;13.87;10.40;;;;;;;6.90;100.00;96325.66;5015669;28;20931;-77
2022/11/05 09:00:41;;;;;;;12.73;9.60;;;;;;;6.70;100.00;96288.34;5040754;28;20410;-76
2022/11/05 09:03:09;;;;;;;22.63;12.00;;;;;;;6.59;100.00;96296.78;5026316;28;20473;-77
2022/11/05 09:05:38;;;;;;;15.50;12.27;;;;;;;6.81;100.00;96331.69;5022330;28;20955;-77
2022/11/05 09:08:11;;;;;;;14.30;11.53;;;;;;;6.47;100.00;96279.72;5028715;28;20536;-77
2022/11/05 09:10:39;;;;;;;13.63;10.17;;;;;;;6.65;100.00;96335.72;5026559;28;20462;-78
2022/11/05 09:13:06;;;;;;;14.13;10.77;;;;;;;6.63;100.00;96322.13;5012376;28;20472;-78
2022/11/05 09:15:41;;;;;;;17.73;12.80;;;;;;;6.67;100.00;96333.56;5036949;28;20433;-78
2022/11/05 09:18:11;;;;;;;15.40;11.37;;;;;;;6.59;100.00;96328.28;5042450;28;20427;-79
2022/11/05 09:20:39;;;;;;;13.90;12.37;;;;;;;6.36;100.00;96317.00;5040600;28;20806;-79
2022/11/05 09:23:07;;;;;;;15.57;12.40;;;;;;;6.44;100.00;96334.69;5022994;28;20560;-79
2022/11/05 09:25:34;;;;;;;12.10;10.70;;;;;;;6.62;100.00;96346.84;5045268;28;20445;-79
2022/11/05 09:28:05;;;;;;;18.00;13.50;;;;;;;6.73;100.00;96329.75;5027368;28;20441;-79
2022/11/05 09:30:32;;;;;;;13.47;11.43;;;;;;;6.84;100.00;96340.81;5017631;28;20533;-79
2022/11/05 09:32:59;;;;;;;14.13;11.53;;;;;;;6.87;100.00;96361.22;5047802;28;20449;-79
2022/11/05 09:35:25;;;;;;;15.87;11.53;;;;;;;6.47;100.00;96289.44;5001201;28;20501;-79
2022/11/05 09:37:52;;;;;;;13.50;10.97;;;;;;;7.11;100.00;96350.38;5028074;28;20458;-79
2022/11/05 09:40:30;;;;;;;13.53;11.27;;;;;;;7.20;100.00;96345.13;5029917;28;20463;-79
2022/11/05 09:42:58;;;;;;;10.67;9.67;;;;;;;7.47;100.00;96378.34;5042240;28;20470;-79
2022/11/05 09:45:27;;;;;;;13.63;9.20;;;;;;;7.55;100.00;96374.97;5029693;28;20439;-77
2022/11/05 09:48:09;;;;;;;12.67;9.90;;;;;;;7.30;100.00;96339.59;5047083;28;20445;-79
2022/11/05 09:50:41;;;;;;;10.87;9.80;;;;;;;7.62;100.00;96377.94;5046476;28;20445;-80
2022/11/05 09:53:17;;;;;;;13.67;8.70;;;;;;;7.57;100.00;96342.00;5040467;28;20453;-78
2022/11/05 09:55:55;;;;;;;12.40;9.13;;;;;;;7.48;100.00;96303.59;5028288;28;20455;-78
2022/11/05 09:58:44;;;;;;;10.10;8.50;;;;;;;7.89;100.00;96393.50;5030570;28;20866;-78
2022/11/05 10:01:18;;;;;;;10.43;8.13;;;;;;;7.73;100.00;96371.28;5040297;28;20439;-78
2022/11/05 10:03:49;;;;;;;8.93;8.13;;;;;;;8.02;100.00;96398.94;5043243;28;20807;-78
2022/11/05 10:06:26;;;;;;;13.03;8.40;;;;;;;8.13;100.00;96400.16;5046313;28;20438;-78
2022/11/05 10:09:00;;;;;;;10.90;8.50;;;;;;;8.17;100.00;96404.53;5035356;28;20426;-78
2022/11/05 10:11:34;;;;;;;8.83;8.03;;;;;;;7.76;100.00;96367.28;5027230;28;20533;-78
2022/11/05 10:14:10;;;;;;;10.70;8.07;;;;;;;7.96;100.00;96404.31;5046507;28;20454;-78
2022/11/05 10:16:45;;;;;;;8.77;7.77;;;;;;;7.94;100.00;96405.72;5034060;28;20458;-78
2022/11/05 10:19:25;;;;;;;9.27;7.40;;;;;;;8.15;100.00;96408.56;5052013;28;20876;-78
2022/11/05 10:22:08;;;;;;;9.03;7.97;;;;;;;8.09;100.00;96415.03;5039067;28;20478;-78
2022/11/05 10:24:36;;;;;;;9.90;7.40;;;;;;;8.07;100.00;96402.19;5043868;28;20411;-78
2022/11/05 10:27:04;;;;;;;11.33;7.10;;;;;;;8.04;100.00;96420.47;5029364;28;21001;-78
2022/11/05 10:29:33;;;;;;;10.50;7.67;;;;;;;7.95;100.00;96402.78;5026499;28;20909;-78
2022/11/05 10:32:04;;;;;;;12.50;9.10;;;;;;;7.92;100.00;96421.06;5022578;28;20449;-78
2022/11/05 10:34:33;;;;;;;8.97;8.07;;;;;;;8.05;100.00;96411.47;5024318;28;20474;-78
2022/11/05 10:37:00;;;;;;;7.07;6.20;;;;;;;7.88;100.00;96375.34;5052416;28;20461;-78
2022/11/05 10:39:30;;;;;;;6.90;6.20;;;;;;;8.12;100.00;96412.56;5040075;28;20426;-78
2022/11/05 10:42:20;;;;;;;7.07;6.47;;;;;;;7.98;100.00;96414.53;5045392;28;20469;-78
2022/11/05 10:45:12;;;;;;;9.83;6.03;;;;;;;7.93;100.00;96401.53;5029217;28;20522;-78
2022/11/05 10:48:17;;;;;;;8.00;6.13;;;;;;;7.98;100.00;96419.81;5029605;28;20430;-78
2022/11/05 10:50:43;;;;;;;7.80;6.67;;;;;;;7.63;100.00;96368.97;5036258;28;20433;-79
2022/11/05 10:53:12;;;;;;;8.33;7.53;;;;;;;7.79;100.00;96400.88;5039591;28;20452;-79
2022/11/05 10:55:47;;;;;;;7.73;7.00;;;;;;;7.68;100.00;96393.25;5014381;28;20446;-79
2022/11/05 10:58:14;;;;;;;9.23;8.10;;;;;;;7.74;100.00;96420.22;5039708;28;20961;-79
2022/11/05 11:00:59;;;;;;;9.10;8.07;;;;;;;7.84;100.00;96422.56;5028530;28;20470;-78
2022/11/05 11:03:47;;;;;;;8.53;7.60;;;;;;;7.85;100.00;96423.34;5040694;28;20461;-79
2022/11/05 11:06:20;;;;;;;9.70;8.57;;;;;;;7.80;100.00;96429.53;5033215;28;20446;-79
2022/11/05 11:08:49;;;;;;;8.97;8.07;;;;;;;7.71;100.00;96415.56;5043323;28;20470;-81
2022/11/05 11:11:28;;;;;;;10.33;8.53;;;;;;;7.62;100.00;96418.19;5042120;28;20423;-81
2022/11/05 11:14:12;;;;;;;8.67;7.77;;;;;;;7.68;100.00;96411.69;5068943;28;20520;-81
2022/11/05 11:16:45;;;;;;;10.13;8.87;;;;;;;7.52;100.00;96386.88;5049674;28;20425;-82
2022/11/05 11:19:23;;;;;;;8.80;6.60;;;;;;;7.75;100.00;96410.47;5041457;28;20472;-82
2022/11/05 11:22:02;;;;;;;8.37;7.57;;;;;;;7.82;100.00;96422.09;5043927;28;20509;-81
2022/11/05 11:24:41;;;;;;;10.17;8.07;;;;;;;7.62;100.00;96404.25;5050636;28;21044;-82
2022/11/05 11:27:23;;;;;;;11.07;7.50;;;;;;;7.64;100.00;96413.38;5051635;28;20446;-82
2022/11/05 11:29:58;;;;;;;7.00;6.40;;;;;;;7.49;100.00;96408.53;5033362;28;20429;-83
2022/11/05 11:32:32;;;;;;;8.33;7.53;;;;;;;7.65;100.00;96430.72;5021474;28;20530;-82
2022/11/05 11:35:00;;;;;;;11.17;7.50;;;;;;;7.46;100.00;96401.22;5029283;28;20445;-81
2022/11/05 11:37:34;;;;;;;12.17;8.60;;;;;;;7.57;100.00;96420.16;5029379;28;20434;-82
2022/11/05 11:40:11;;;;;;;10.20;8.33;;;;;;;8.10;100.00;96422.63;5054034;28;20434;-81
2022/11/05 11:42:43;;;;;;;11.80;8.03;;;;;;;8.25;100.00;96434.56;5019776;28;20474;-82
2022/11/05 11:45:25;;;;;;;10.07;8.20;;;;;;;8.23;100.00;96408.53;5044744;28;20501;-81
2022/11/05 11:47:54;;;;;;;8.50;7.70;;;;;;;8.37;100.00;96395.25;5019911;28;20458;-81
2022/11/05 11:50:54;;;;;;;11.43;8.97;;;;;;;8.84;100.00;96441.00;5040463;28;20456;-81
2022/11/05 11:53:21;;;;;;;7.77;7.07;;;;;;;8.86;100.00;96441.44;5014415;28;20557;-81
2022/11/05 11:55:53;;;;;;;8.73;7.00;;;;;;;8.53;100.00;96445.63;5037938;28;20450;-81
2022/11/05 11:58:39;;;;;;;11.13;7.43;;;;;;;8.47;100.00;96416.03;5026650;28;20450;-81
2022/11/05 12:01:42;;;;;;;11.40;7.10;;;;;;;8.26;100.00;96378.94;5031218;28;20431;-83
2022/11/05 12:04:29;;;;;;;9.20;7.63;;;;;;;8.50;100.00;96427.81;5045527;28;20461;-82
2022/11/05 12:07:19;;;;;;;8.37;7.37;;;;;;;8.35;100.00;96441.44;5020590;28;20431;-82
2022/11/05 12:09:58;;;;;;;15.93;8.03;;;;;;;7.47;100.00;96370.44;5000872;28;20963;-81
2022/11/05 12:12:50;;;;;;;10.60;8.00;;;;;;;7.69;100.00;96426.41;5019341;28;20466;-81
2022/11/05 12:15:38;;;;;;;11.83;7.83;;;;;;;7.77;100.00;96440.69;5042372;28;20487;-81
2022/11/05 12:18:11;;;;;;;10.53;7.80;;;;;;;7.45;100.00;96394.41;5022246;28;20542;-82
2022/11/05 12:21:07;;;;;;;10.53;7.87;;;;;;;7.62;100.00;96433.97;5047862;28;20437;-81
2022/11/05 12:23:37;;;;;;;8.20;7.40;;;;;;;7.71;100.00;96440.03;5023525;28;20463;-81
2022/11/05 12:26:22;;;;;;;8.70;7.80;;;;;;;7.81;100.00;96443.47;5026502;28;20442;-81
2022/11/05 12:29:17;;;;;;;8.50;6.90;;;;;;;8.17;100.00;96438.75;5010652;28;20437;-81
2022/11/05 12:32:21;;;;;;;8.67;7.27;;;;;;;8.20;100.00;96435.50;5009019;28;20502;-81